createdAt,value
2019-04-22T00:00:06.993Z,67.4
2019-04-22T00:05:42.650Z,67.5
2019-04-22T00:11:45.124Z,66.1
2019-04-22T00:17:53.155Z,68.8
2019-04-22T00:29:59.078Z,69.2
2019-04-22T00:35:41.172Z,70.5
2019-04-22T00:41:42.334Z,69.6
2019-04-22T00:47:37.552Z,68.5
2019-04-22T00:53:34.100Z,69.2
2019-04-22T00:59:22.982Z,71.2
2019-04-22T01:05:27.118Z,71.4
2019-04-22T01:11:28.938Z,72.3
2019-04-22T01:17:18.833Z,72.1
2019-04-22T01:23:10.679Z,73.1
2019-04-22T01:28:45.765Z,70.5
2019-04-22T01:34:09.834Z,72.7
2019-04-22T01:40:09.508Z,73.9
2019-04-22T01:46:07.740Z,72.4
2019-04-22T01:58:10.581Z,71.8
2019-04-22T02:04:25.442Z,71.9
2019-04-22T02:10:27.940Z,73.2
2019-04-22T02:16:19.540Z,73.7
2019-04-22T02:28:04.755Z,75.3
2019-04-22T02:34:32.316Z,74.5
2019-04-22T02:40:44.076Z,73.9
2019-04-22T02:47:03.616Z,73.2
2019-04-22T02:53:29.177Z,74.7
2019-04-22T02:59:46.383Z,75.3
2019-04-22T03:12:23.063Z,73.8
2019-04-22T03:18:28.850Z,76
2019-04-22T03:31:33.807Z,76.2
2019-04-22T03:37:42.699Z,75.9
2019-04-22T03:50:24.657Z,73.6
2019-04-22T03:57:06.728Z,74.3
2019-04-22T04:03:18.875Z,71.6
2019-04-22T04:09:38.287Z,60.3
2019-04-22T04:15:46.017Z,53.5
2019-04-22T04:21:46.646Z,48.8
2019-04-22T04:28:09.875Z,47.1
2019-04-22T04:34:42.738Z,41.7
2019-04-22T04:47:11.162Z,41.4
2019-04-22T05:00:31.519Z,42.5
2019-04-22T05:06:51.020Z,39.1
2019-04-22T05:13:10.011Z,39.8
2019-04-22T05:19:14.937Z,42.9
2019-04-22T05:25:22.055Z,39.2
2019-04-22T05:31:13.833Z,40.2
2019-04-22T05:37:20.402Z,41.1
2019-04-22T05:43:13.648Z,41
2019-04-22T05:49:17.602Z,43.5
2019-04-22T05:55:20.982Z,38.6
2019-04-22T06:01:56.266Z,39.9
2019-04-22T06:07:45.086Z,43.4
2019-04-22T06:13:31.787Z,45.8
2019-04-22T06:19:24.299Z,47.9
2019-04-22T06:25:27.008Z,48.6
2019-04-22T06:31:42.068Z,50.4
2019-04-22T06:38:15.816Z,48.1
2019-04-22T06:44:17.792Z,48.1
2019-04-22T06:50:22.861Z,49
2019-04-22T06:56:21.535Z,46.5
2019-04-22T07:02:09.899Z,48.1
2019-04-22T07:08:15.653Z,46.4
2019-04-22T07:14:28.067Z,45.7
2019-04-22T07:20:36.144Z,44.9
2019-04-22T07:26:28.877Z,40.4
2019-04-22T07:32:33.170Z,42.3
2019-04-22T07:38:42.168Z,37.4
2019-04-22T07:44:49.416Z,38.2
2019-04-22T07:56:59.557Z,36.8
2019-04-22T08:03:06.077Z,39.6
2019-04-22T08:08:59.681Z,40.5
2019-04-22T08:14:58.209Z,35.7
2019-04-22T08:21:21.804Z,36.6
2019-04-22T08:33:09.197Z,33
2019-04-22T08:45:38.268Z,33.1
2019-04-22T08:51:29.142Z,31.4
2019-04-22T08:57:17.897Z,33.7
2019-04-22T09:03:23.709Z,32
2019-04-22T09:09:26.315Z,30.1
2019-04-22T09:15:18.165Z,30.8
2019-04-22T09:21:18.239Z,29.8
2019-04-22T09:27:17.725Z,30.3
2019-04-22T09:33:13.837Z,31.2
2019-04-22T09:39:14.022Z,30
2019-04-22T09:45:05.538Z,29.7
2019-04-22T09:50:58.700Z,31.9
2019-04-22T09:56:54.850Z,27.7
2019-04-22T10:03:06.714Z,28.2
2019-04-22T10:09:25.762Z,28.8
2019-04-22T10:15:19.380Z,32.6
2019-04-22T10:21:23.872Z,28.1
2019-04-22T10:27:20.146Z,27.8
2019-04-22T10:33:04.149Z,31.9
2019-04-22T10:38:06.319Z,24.5
2019-04-22T10:43:05.582Z,30.6
2019-04-22T10:48:06.365Z,27.6
2019-04-22T10:53:07.619Z,26.6
2019-04-22T10:58:06.966Z,27
2019-04-22T11:03:06.811Z,25.9
2019-04-22T11:08:10.172Z,26
2019-04-22T11:13:13.929Z,26.3
2019-04-22T11:18:13.727Z,27.9
2019-04-22T11:23:14.516Z,29.9
2019-04-22T11:28:14.037Z,28.7
2019-04-22T11:33:16.247Z,29.3
2019-04-22T11:38:17.441Z,28.5
2019-04-22T11:43:16.641Z,31.1
2019-04-22T11:48:17.768Z,27.2
2019-04-22T11:53:18.812Z,27.8
2019-04-22T11:58:19.216Z,27.8
2019-04-22T12:03:19.060Z,31.3
2019-04-22T12:08:17.983Z,31.5
2019-04-22T12:13:18.068Z,28.1
2019-04-22T12:18:19.339Z,32
2019-04-22T12:23:19.260Z,28.7
2019-04-22T12:28:19.427Z,29.1
2019-04-22T12:33:19.498Z,28.6
2019-04-22T12:38:21.968Z,27.7
2019-04-22T12:43:26.373Z,26.7
2019-04-22T12:48:27.606Z,29.4
2019-04-22T12:53:29.726Z,28.1
2019-04-22T12:58:29.970Z,30.2
2019-04-22T13:03:29.019Z,28.1
2019-04-22T13:08:29.994Z,28.1
2019-04-22T13:13:29.301Z,27.6
2019-04-22T13:18:47.940Z,28.1
2019-04-22T13:23:48.690Z,26.4
2019-04-22T13:28:49.377Z,29
2019-04-22T13:33:57.995Z,27.8
2019-04-22T13:38:58.700Z,29
2019-04-22T13:43:59.563Z,31.7
2019-04-22T13:49:58.837Z,28.5
2019-04-22T13:56:00.502Z,31.2
2019-04-22T14:01:01.019Z,28.3
2019-04-22T14:06:02.598Z,27.8
2019-04-22T14:11:25.568Z,27.6
2019-04-22T14:16:27.302Z,30.1
2019-04-22T14:21:27.275Z,30.2
2019-04-22T14:26:54.829Z,30.9
2019-04-22T14:32:13.164Z,28.3
2019-04-22T14:37:14.403Z,29.6
2019-04-22T14:42:54.332Z,29.9
2019-04-22T14:48:55.539Z,31.6
2019-04-22T14:54:30.832Z,30.9
2019-04-22T14:59:29.567Z,30
2019-04-22T15:04:29.342Z,29.5
2019-04-22T15:09:28.341Z,31.6
2019-04-22T15:14:28.012Z,31.6
2019-04-22T15:19:27.794Z,30.4
2019-04-22T15:24:29.373Z,32.5
2019-04-22T15:29:31.378Z,33.4
2019-04-22T15:34:32.557Z,31.9
2019-04-22T15:39:31.999Z,32.5
2019-04-22T15:44:31.630Z,31.8
2019-04-22T15:49:33.919Z,32.9
2019-04-22T15:54:34.226Z,31.3
2019-04-22T16:00:10.424Z,32.1
2019-04-22T16:05:06.923Z,33
2019-04-22T16:10:06.215Z,34.3
2019-04-22T16:15:09.469Z,33.1
2019-04-22T16:20:10.917Z,35
2019-04-22T16:25:13.206Z,34.6
2019-04-22T16:30:13.359Z,35.6
2019-04-22T16:35:13.014Z,34.6
2019-04-22T16:40:12.801Z,34.7
2019-04-22T16:45:13.687Z,35
2019-04-22T16:50:14.302Z,34.8
2019-04-22T16:55:14.960Z,36.1
2019-04-22T17:00:14.218Z,36.3
2019-04-22T17:05:15.536Z,37.1
2019-04-22T17:10:15.764Z,35.9
2019-04-22T17:15:20.033Z,36.5
2019-04-22T17:20:19.031Z,36.7
2019-04-22T17:25:18.539Z,37.2
2019-04-22T17:30:18.054Z,38.3
2019-04-22T17:35:18.021Z,38.4
2019-04-22T17:40:55.676Z,38.5
2019-04-22T17:46:28.863Z,39.1
2019-04-22T17:52:24.258Z,38.7
2019-04-22T17:58:14.312Z,40.1
2019-04-22T18:03:39.033Z,40
2019-04-22T18:09:17.034Z,40
2019-04-22T18:15:13.245Z,41.6
2019-04-22T18:20:45.660Z,45.2
2019-04-22T18:26:24.193Z,44.6
2019-04-22T18:31:50.035Z,42.9
2019-04-22T18:37:24.213Z,42.7
2019-04-22T18:43:21.260Z,43.7
2019-04-22T18:49:10.435Z,43.9
2019-04-22T18:54:56.680Z,44.7
2019-04-22T19:00:04.313Z,46.1
2019-04-22T19:05:29.790Z,47.3
2019-04-22T19:11:20.158Z,47.5
2019-04-22T19:17:16.807Z,47.8
2019-04-22T19:23:12.260Z,48.3
2019-04-22T19:28:53.943Z,48.6
2019-04-22T19:34:36.605Z,49
2019-04-22T19:40:40.225Z,49.4
2019-04-22T19:46:26.396Z,49.3
2019-04-22T19:52:28.548Z,49.4
2019-04-22T19:58:14.583Z,49.4
2019-04-22T20:04:11.983Z,49.9
2019-04-22T20:10:04.202Z,50.2
2019-04-22T20:15:36.936Z,50.4
2019-04-22T20:21:28.065Z,50.9
2019-04-22T20:27:22.319Z,51.8
2019-04-22T20:32:58.875Z,52.6
2019-04-22T20:38:44.759Z,52.8
2019-04-22T20:44:28.917Z,52.7
2019-04-22T20:50:18.400Z,53.1
2019-04-22T20:55:58.578Z,53.6
2019-04-22T21:01:33.269Z,53.5
2019-04-22T21:07:08.888Z,53.5
2019-04-22T21:12:35.983Z,54.1
2019-04-22T21:18:09.311Z,53.8
2019-04-22T21:23:38.047Z,53.9
2019-04-22T21:29:15.756Z,53.8
2019-04-22T21:35:11.599Z,53.9
2019-04-22T21:41:09.721Z,54.1
2019-04-22T21:46:56.838Z,53.3
2019-04-22T21:52:38.227Z,53.6
2019-04-22T21:58:30.875Z,53.9
2019-04-22T22:04:20.087Z,54.1
2019-04-22T22:10:04.039Z,53.6
2019-04-22T22:15:50.794Z,52.8
2019-04-22T22:21:56.829Z,53
2019-04-22T22:27:43.099Z,52.8
2019-04-22T22:33:22.859Z,53.3
2019-04-22T22:38:58.288Z,53.6
2019-04-22T22:44:16.049Z,53.9
2019-04-22T22:49:56.417Z,53.5
2019-04-22T22:55:39.013Z,52.8
2019-04-22T23:01:29.750Z,53.8
2019-04-22T23:07:40.371Z,53.2
2019-04-22T23:13:29.592Z,53.4
2019-04-22T23:18:30.173Z,53.1
2019-04-22T23:24:15.685Z,53
2019-04-22T23:29:26.817Z,53.4
2019-04-22T23:35:06.375Z,53.5
2019-04-22T23:40:46.984Z,54
2019-04-22T23:46:19.334Z,55.5
2019-04-22T23:52:08.484Z,55.2
2019-04-22T23:57:32.922Z,55.4
